Time;durP1;ratioP1;P1;durP2;ratioP2;P2;SDS_P1;SDS_P2;PMS_P1;PMS_P2;Temp;Humidity;BMP_temperature;BMP_pressure;BME280_temperature;BME280_humidity;BME280_pressure;Samples;Min_cycle;Max_cycle;Signal;HPM_P1;HPM_P2
2021/07/09 00:05:44;;;;;;;4.97;1.52;;;22.50;40.70;;;;;;20223936;28;81020;-70
2021/07/09 00:15:47;;;;;;;3.50;0.80;;;22.50;40.60;;;;;;20210783;28;80554;-68
2021/07/09 00:25:49;;;;;;;3.42;0.80;;;22.50;40.50;;;;;;20232118;28;80243;-68
2021/07/09 00:35:51;;;;;;;2.15;0.50;;;22.50;40.60;;;;;;20211958;28;80587;-67
2021/07/09 00:45:53;;;;;;;1.80;0.70;;;22.60;39.50;;;;;;20208774;28;81777;-68
2021/07/09 00:55:56;;;;;;;1.05;0.43;;;22.70;38.80;;;;;;20208732;28;80825;-68
2021/07/09 01:05:58;;;;;;;1.10;0.52;;;22.70;38.60;;;;;;20210521;28;81964;-68
2021/07/09 01:16:00;;;;;;;1.02;0.52;;;22.80;38.00;;;;;;20206722;28;82090;-66
2021/07/09 01:26:04;;;;;;;1.92;0.65;;;22.80;38.00;;;;;;20212129;28;80566;-68
2021/07/09 01:36:16;;;;;;;4.07;0.60;;;22.70;38.00;;;;;;20210764;28;80715;-68
2021/07/09 01:46:22;;;;;;;1.20;0.50;;;22.70;38.40;;;;;;20196436;28;80085;-67
2021/07/09 01:56:30;;;;;;;2.45;0.70;;;22.60;39.00;;;;;;20227091;28;80138;-68
2021/07/09 02:06:35;;;;;;;1.67;0.80;;;22.40;38.90;;;;;;20205600;28;81084;-68
2021/07/09 02:16:40;;;;;;;2.10;0.63;;;22.40;39.60;;;;;;20204070;28;80518;-67
2021/07/09 02:26:44;;;;;;;1.35;0.60;;;22.20;40.30;;;;;;20204930;28;81542;-68
2021/07/09 02:36:52;;;;;;;1.80;0.80;;;22.00;40.80;;;;;;20206048;28;80737;-68
2021/07/09 02:46:57;;;;;;;2.65;0.63;;;21.90;41.30;;;;;;20202183;28;80680;-68
2021/07/09 02:57:01;;;;;;;4.03;1.00;;;21.90;40.80;;;;;;20204479;28;80884;-68
2021/07/09 03:07:06;;;;;;;2.83;0.90;;;21.90;40.50;;;;;;20224354;28;80532;-68
2021/07/09 03:17:11;;;;;;;2.50;0.65;;;21.90;40.30;;;;;;20220625;28;80700;-67
2021/07/09 03:27:17;;;;;;;2.55;0.63;;;21.70;40.70;;;;;;20218444;28;80080;-68
2021/07/09 03:37:24;;;;;;;1.50;0.60;;;21.70;41.00;;;;;;20178440;28;80212;-68
2021/07/09 03:47:29;;;;;;;1.88;0.77;;;21.50;41.70;;;;;;20213910;28;80645;-68
2021/07/09 03:57:35;;;;;;;2.20;0.82;;;21.50;41.90;;;;;;20215663;28;80671;-67
2021/07/09 04:07:42;;;;;;;2.58;0.90;;;21.40;42.00;;;;;;20228956;28;81485;-67
2021/07/09 04:18:03;;;;;;;2.10;1.00;;;21.40;42.20;;;;;;20226538;28;80457;-68
2021/07/09 04:28:15;;;;;;;1.80;0.60;;;21.30;42.40;;;;;;20210848;28;81310;-68
2021/07/09 04:38:28;;;;;;;2.30;0.98;;;21.20;42.80;;;;;;20208061;28;81962;-68
2021/07/09 04:48:49;;;;;;;2.78;1.10;;;21.10;43.30;;;;;;20229398;28;82653;-68
2021/07/09 04:58:58;;;;;;;5.28;1.20;;;21.10;43.60;;;;;;20213956;28;80655;-68
2021/07/09 05:09:06;;;;;;;3.28;0.85;;;21.00;43.70;;;;;;20227124;28;80656;-69
2021/07/09 05:19:10;;;;;;;4.75;1.23;;;21.00;44.10;;;;;;20219305;28;81934;-67
2021/07/09 05:29:13;;;;;;;2.88;1.27;;;20.90;44.40;;;;;;20204706;28;81549;-70
2021/07/09 05:39:16;;;;;;;7.35;1.75;;;21.00;44.40;;;;;;20206752;28;80875;-72
2021/07/09 05:49:19;;;;;;;80.35;48.20;;;21.10;44.80;;;;;;20202798;28;81777;-70
2021/07/09 05:59:22;;;;;;;7.40;4.35;;;21.40;44.70;;;;;;20214504;28;83741;-69
2021/07/09 06:09:24;;;;;;;;;;;21.50;44.80;;;;;;20202370;28;83630;-69
2021/07/09 06:19:27;;;;;;;7.80;1.43;;;21.60;45.00;;;;;;20223331;28;81526;-70
2021/07/09 06:29:30;;;;;;;6.40;1.25;;;21.60;45.60;;;;;;20203112;28;80186;-70
2021/07/09 06:39:33;;;;;;;14.98;9.25;;;21.70;46.20;;;;;;20192467;28;81831;-70
2021/07/09 06:49:35;;;;;;;7.73;1.53;;;21.70;46.40;;;;;;20210306;28;80616;-70
2021/07/09 06:59:42;;;;;;;7.15;4.35;;;21.90;46.60;;;;;;20206791;28;80598;-69
2021/07/09 07:09:45;;;;;;;7.28;4.07;;;21.90;46.70;;;;;;20222105;28;81325;-70
2021/07/09 07:19:47;;;;;;;7.32;2.40;;;22.10;46.90;;;;;;20212924;28;81170;-69
2021/07/09 07:29:49;;;;;;;25.33;15.68;;;22.20;47.20;;;;;;20211185;28;81325;-69
2021/07/09 07:39:53;;;;;;;8.55;2.92;;;22.40;47.40;;;;;;20189044;28;84225;-69
2021/07/09 07:49:58;;;;;;;7.25;2.13;;;22.50;47.60;;;;;;20232759;28;83201;-69
2021/07/09 08:00:01;;;;;;;4.15;1.63;;;22.70;48.50;;;;;;20214470;28;80104;-70
2021/07/09 08:10:05;;;;;;;5.85;2.20;;;22.80;49.00;;;;;;20210647;28;81947;-70
2021/07/09 08:20:08;;;;;;;3.80;2.20;;;23.00;49.60;;;;;;20231356;28;80710;-70
2021/07/09 08:30:11;;;;;;;6.72;2.05;;;23.10;50.60;;;;;;20209729;28;80773;-69
2021/07/09 08:40:14;;;;;;;6.90;2.38;;;23.30;50.90;;;;;;20230220;28;80665;-70
2021/07/09 08:50:17;;;;;;;5.90;2.20;;;23.40;50.10;;;;;;20191872;28;81852;-70
2021/07/09 09:00:32;;;;;;;7.05;2.53;;;23.70;50.30;;;;;;20213398;28;82340;-70
2021/07/09 09:10:41;;;;;;;6.07;2.40;;;23.90;50.70;;;;;;20205623;28;80141;-70
2021/07/09 09:20:43;;;;;;;9.98;2.92;;;24.30;49.80;;;;;;20207874;28;81694;-69
2021/07/09 09:30:48;;;;;;;;;;;24.50;49.00;;;;;;20204693;28;80007;-69
2021/07/09 09:40:50;;;;;;;7.68;2.78;;;24.90;48.90;;;;;;20243092;28;80663;-69
2021/07/09 09:50:52;;;;;;;;;;;25.20;48.30;;;;;;20207702;28;80503;-68
2021/07/09 10:00:54;;;;;;;6.17;2.53;;;25.80;47.30;;;;;;20232706;28;80698;-69
2021/07/09 10:10:56;;;;;;;5.35;2.22;;;26.60;46.30;;;;;;20208188;28;80417;-68
2021/07/09 10:20:59;;;;;;;6.57;2.88;;;27.30;45.80;;;;;;20210789;28;81519;-68
2021/07/09 10:31:01;;;;;;;11.35;2.83;;;27.80;44.50;;;;;;20220596;28;81620;-68
2021/07/09 10:41:17;;;;;;;5.97;2.90;;;28.30;44.70;;;;;;20217426;28;80202;-69
2021/07/09 10:51:19;;;;;;;9.57;3.30;;;28.80;44.20;;;;;;20218455;28;80915;-69
2021/07/09 11:01:26;;;;;;;6.03;2.88;;;29.50;43.30;;;;;;20215217;28;82673;-68
2021/07/09 11:11:28;;;;;;;6.57;2.97;;;30.60;41.10;;;;;;20213977;28;81089;-69
2021/07/09 11:21:32;;;;;;;6.40;3.00;;;32.40;38.50;;;;;;20217244;28;81761;-68
2021/07/09 11:31:39;;;;;;;7.53;2.95;;;35.30;33.70;;;;;;20216156;28;81244;-69
2021/07/09 11:42:06;;;;;;;16.05;3.58;;;38.60;29.60;;;;;;20213007;28;80731;-69
2021/07/09 11:52:11;;;;;;;12.05;3.03;;;39.90;28.40;;;;;;20229056;28;81888;-69
2021/07/09 12:02:23;;;;;;;7.07;2.90;;;41.30;25.10;;;;;;20215748;28;80763;-70
2021/07/09 12:12:28;;;;;;;7.72;2.80;;;41.70;24.50;;;;;;20209323;28;80690;-70
2021/07/09 12:22:33;;;;;;;15.77;3.42;;;40.80;25.40;;;;;;20230054;28;81907;-70
2021/07/09 12:32:43;;;;;;;4.72;2.40;;;40.60;25.60;;;;;;20212981;28;81627;-69
2021/07/09 12:42:47;;;;;;;9.55;2.95;;;40.40;25.10;;;;;;20197362;28;80954;-70
2021/07/09 12:52:50;;;;;;;8.85;3.88;;;42.20;23.60;;;;;;20224528;28;81592;-68
2021/07/09 13:02:53;;;;;;;9.73;3.17;;;44.40;21.10;;;;;;20211227;28;80733;-69
2021/07/09 13:12:55;;;;;;;4.28;3.22;;;48.40;17.80;;;;;;20205680;28;80655;-71
2021/07/09 13:22:57;;;;;;;4.90;2.80;;;49.70;17.20;;;;;;20207430;28;80360;-70
2021/07/09 13:32:59;;;;;;;4.93;2.75;;;51.00;15.40;;;;;;20226240;28;80179;-70
2021/07/09 13:43:01;;;;;;;5.28;3.17;;;51.50;14.50;;;;;;20220804;28;80739;-70
2021/07/09 13:53:03;;;;;;;6.38;2.70;;;49.60;15.70;;;;;;20204181;28;80668;-70
2021/07/09 14:03:05;;;;;;;6.90;2.42;;;42.00;20.50;;;;;;20202473;28;80739;-68
2021/07/09 14:13:09;;;;;;;4.05;1.98;;;39.30;21.80;;;;;;20204949;28;80699;-69
2021/07/09 14:23:11;;;;;;;3.00;2.13;;;38.10;22.40;;;;;;20233440;28;80703;-69
2021/07/09 14:33:14;;;;;;;4.97;2.17;;;37.50;22.40;;;;;;20206110;28;80830;-69
2021/07/09 14:43:16;;;;;;;4.70;2.50;;;37.10;23.50;;;;;;20202809;28;81920;-70
2021/07/09 14:53:18;;;;;;;5.05;2.72;;;36.70;23.50;;;;;;20199338;28;81850;-68
2021/07/09 15:03:19;;;;;;;5.05;2.53;;;36.10;23.10;;;;;;20225814;28;80716;-68
2021/07/09 15:13:24;;;;;;;6.05;3.28;;;35.70;24.20;;;;;;20217054;28;81834;-68
2021/07/09 15:23:26;;;;;;;7.03;2.90;;;35.30;23.90;;;;;;20218049;28;80703;-69
2021/07/09 15:33:28;;;;;;;12.68;3.03;;;34.90;24.20;;;;;;20215198;28;80675;-68
2021/07/09 15:43:30;;;;;;;5.20;2.88;;;34.60;24.70;;;;;;20243665;28;81109;-69
2021/07/09 15:53:32;;;;;;;5.18;2.25;;;34.40;25.40;;;;;;20210922;28;80492;-69
2021/07/09 16:03:33;;;;;;;4.55;2.22;;;34.10;24.40;;;;;;20212943;28;80993;-69
2021/07/09 16:13:35;;;;;;;4.18;2.55;;;34.00;24.80;;;;;;20215466;28;81971;-68
2021/07/09 16:23:37;;;;;;;7.25;2.10;;;33.80;25.40;;;;;;20212745;28;82000;-68
2021/07/09 16:33:39;;;;;;;5.68;2.13;;;33.60;24.80;;;;;;20209572;28;80960;-69
2021/07/09 16:43:41;;;;;;;3.60;2.03;;;33.50;26.30;;;;;;20224254;28;80337;-69
2021/07/09 16:53:42;;;;;;;6.22;2.13;;;33.20;26.10;;;;;;20213930;28;80639;-68
2021/07/09 17:03:45;;;;;;;6.43;2.00;;;33.00;24.80;;;;;;20227758;28;80172;-67
2021/07/09 17:13:47;;;;;;;6.10;1.80;;;33.00;24.70;;;;;;20202546;28;81728;-69
2021/07/09 17:23:49;;;;;;;44.67;10.55;;;32.70;24.40;;;;;;20222308;28;82720;-68
2021/07/09 17:33:51;;;;;;;10.73;2.15;;;31.80;28.70;;;;;;20194247;28;82903;-70
2021/07/09 17:43:53;;;;;;;7.13;2.00;;;31.20;27.30;;;;;;20207401;28;83099;-69
2021/07/09 17:53:55;;;;;;;4.57;1.67;;;31.40;27.80;;;;;;20202106;28;80710;-70
2021/07/09 18:03:57;;;;;;;12.38;2.95;;;31.40;27.80;;;;;;20222777;28;81046;-70
2021/07/09 18:14:00;;;;;;;27.23;17.38;;;31.40;26.00;;;;;;20206233;28;80992;-70
2021/07/09 18:24:01;;;;;;;6.00;2.33;;;31.30;27.10;;;;;;20198766;28;84622;-70
2021/07/09 18:34:03;;;;;;;5.05;1.95;;;31.00;27.00;;;;;;20189980;28;83258;-70
2021/07/09 18:44:06;;;;;;;5.15;2.55;;;30.90;28.80;;;;;;20208467;28;81128;-71
2021/07/09 18:54:07;;;;;;;19.88;12.60;;;30.60;30.40;;;;;;20229671;28;81803;-70
2021/07/09 19:04:09;;;;;;;10.80;6.65;;;30.40;32.00;;;;;;20201757;28;82908;-70
2021/07/09 19:14:11;;;;;;;7.15;4.75;;;30.20;30.30;;;;;;20206188;28;83474;-70
2021/07/09 19:24:13;;;;;;;10.40;4.75;;;29.90;31.70;;;;;;20213759;28;81057;-71
2021/07/09 19:34:15;;;;;;;5.50;2.95;;;29.60;32.80;;;;;;20205825;28;80647;-71
2021/07/09 19:44:17;;;;;;;12.55;3.40;;;29.10;34.30;;;;;;20206446;28;80861;-71
2021/07/09 19:54:19;;;;;;;15.55;9.40;;;28.70;35.60;;;;;;20231886;28;81699;-70
2021/07/09 20:04:20;;;;;;;15.98;9.63;;;28.40;36.90;;;;;;20207665;28;81286;-70
2021/07/09 20:14:22;;;;;;;21.73;12.52;;;28.10;37.40;;;;;;20206587;28;80642;-70
2021/07/09 20:24:24;;;;;;;13.65;7.90;;;27.90;37.80;;;;;;20246059;28;84551;-73
2021/07/09 20:34:26;;;;;;;10.45;6.82;;;27.60;38.40;;;;;;20225336;28;83198;-72
2021/07/09 20:44:28;;;;;;;10.60;6.95;;;27.40;38.60;;;;;;20226926;28;81019;-72
2021/07/09 20:54:32;;;;;;;13.60;6.35;;;27.10;39.30;;;;;;20209994;28;80749;-73
2021/07/09 21:04:34;;;;;;;15.27;6.47;;;26.90;39.70;;;;;;20205898;28;80218;-73
2021/07/09 21:14:36;;;;;;;11.95;6.45;;;26.70;40.30;;;;;;20213720;28;80981;-73
2021/07/09 21:24:38;;;;;;;12.85;7.05;;;26.50;40.80;;;;;;20211109;28;80303;-73
2021/07/09 21:34:40;;;;;;;12.13;4.93;;;26.40;41.20;;;;;;20208486;28;81776;-73
2021/07/09 21:44:42;;;;;;;10.70;4.28;;;26.40;39.80;;;;;;20207941;28;80909;-73
2021/07/09 21:54:44;;;;;;;13.35;5.25;;;26.40;39.40;;;;;;20211378;28;80317;-72
2021/07/09 22:04:47;;;;;;;9.00;4.03;;;26.20;39.40;;;;;;20209730;28;80604;-73
2021/07/09 22:14:50;;;;;;;8.68;4.13;;;26.20;39.20;;;;;;20207304;28;81811;-72
2021/07/09 22:24:53;;;;;;;6.60;3.35;;;26.20;39.00;;;;;;20198882;28;80827;-72
2021/07/09 22:34:55;;;;;;;9.25;3.30;;;26.00;39.20;;;;;;20185461;28;80686;-73
2021/07/09 22:44:57;;;;;;;9.68;3.92;;;26.00;38.90;;;;;;20220070;28;81807;-72
2021/07/09 22:54:58;;;;;;;8.13;4.47;;;26.00;39.50;;;;;;20221140;28;81329;-74
2021/07/09 23:05:00;;;;;;;11.23;4.60;;;25.60;40.40;;;;;;20206182;28;81042;-73
2021/07/09 23:15:06;;;;;;;5.57;4.00;;;25.40;41.30;;;;;;20203481;28;80155;-73
2021/07/09 23:25:10;;;;;;;12.00;6.55;;;25.10;42.40;;;;;;20208133;28;80298;-72
2021/07/09 23:35:12;;;;;;;12.20;5.95;;;24.90;43.30;;;;;;20246796;28;80178;-73
2021/07/09 23:45:14;;;;;;;27.40;19.40;;;24.70;43.70;;;;;;20233437;28;80742;-72
2021/07/09 23:55:16;;;;;;;9.20;5.50;;;24.60;43.90;;;;;;20201456;28;82673;-72
